sensor_id;sensor_type;location;lat;lon;timestamp;P1;durP1;ratioP1;P2;durP2;ratioP2
29238;SDS011;16267;48.194;11.546;2022-08-06T00:00:00;3.28;;;1.80;;
29238;SDS011;16267;48.194;11.546;2022-08-06T00:02:29;7.00;;;2.00;;
29238;SDS011;16267;48.194;11.546;2022-08-06T00:04:56;5.07;;;1.70;;
29238;SDS011;16267;48.194;11.546;2022-08-06T00:07:24;4.78;;;1.75;;
29238;SDS011;16267;48.194;11.546;2022-08-06T00:09:51;6.35;;;2.03;;
29238;SDS011;16267;48.194;11.546;2022-08-06T00:12:17;3.70;;;1.63;;
29238;SDS011;16267;48.194;11.546;2022-08-06T00:14:43;5.10;;;2.00;;
29238;SDS011;16267;48.194;11.546;2022-08-06T00:17:09;5.13;;;1.60;;
29238;SDS011;16267;48.194;11.546;2022-08-06T00:19:35;4.65;;;2.00;;
29238;SDS011;16267;48.194;11.546;2022-08-06T00:22:01;5.03;;;2.10;;
29238;SDS011;16267;48.194;11.546;2022-08-06T00:24:27;3.70;;;2.10;;
29238;SDS011;16267;48.194;11.546;2022-08-06T00:26:52;4.05;;;1.83;;
29238;SDS011;16267;48.194;11.546;2022-08-06T00:29:18;11.65;;;2.72;;
29238;SDS011;16267;48.194;11.546;2022-08-06T00:31:44;4.70;;;2.22;;
29238;SDS011;16267;48.194;11.546;2022-08-06T00:36:51;4.70;;;2.20;;
29238;SDS011;16267;48.194;11.546;2022-08-06T00:39:17;4.65;;;2.33;;
29238;SDS011;16267;48.194;11.546;2022-08-06T00:41:42;3.97;;;2.40;;
29238;SDS011;16267;48.194;11.546;2022-08-06T00:44:09;3.95;;;2.40;;
29238;SDS011;16267;48.194;11.546;2022-08-06T00:46:35;4.55;;;2.40;;
29238;SDS011;16267;48.194;11.546;2022-08-06T00:49:01;3.47;;;2.15;;
29238;SDS011;16267;48.194;11.546;2022-08-06T00:51:26;4.13;;;2.40;;
29238;SDS011;16267;48.194;11.546;2022-08-06T00:53:53;4.32;;;2.20;;
29238;SDS011;16267;48.194;11.546;2022-08-06T00:56:19;4.25;;;2.22;;
29238;SDS011;16267;48.194;11.546;2022-08-06T00:58:45;3.25;;;2.20;;
29238;SDS011;16267;48.194;11.546;2022-08-06T01:01:11;3.47;;;2.13;;
29238;SDS011;16267;48.194;11.546;2022-08-06T01:03:37;6.15;;;2.40;;
29238;SDS011;16267;48.194;11.546;2022-08-06T01:06:03;4.28;;;2.10;;
29238;SDS011;16267;48.194;11.546;2022-08-06T01:08:29;3.85;;;2.60;;
29238;SDS011;16267;48.194;11.546;2022-08-06T01:10:55;6.88;;;2.13;;
29238;SDS011;16267;48.194;11.546;2022-08-06T01:13:20;9.02;;;2.58;;
29238;SDS011;16267;48.194;11.546;2022-08-06T01:15:50;3.72;;;1.90;;
29238;SDS011;16267;48.194;11.546;2022-08-06T01:21:29;5.57;;;2.00;;
29238;SDS011;16267;48.194;11.546;2022-08-06T01:30:31;4.88;;;2.10;;
29238;SDS011;16267;48.194;11.546;2022-08-06T01:33:04;2.38;;;1.85;;
29238;SDS011;16267;48.194;11.546;2022-08-06T01:35:39;4.47;;;1.85;;
29238;SDS011;16267;48.194;11.546;2022-08-06T01:38:11;5.20;;;1.75;;
29238;SDS011;16267;48.194;11.546;2022-08-06T01:41:02;3.50;;;1.85;;
29238;SDS011;16267;48.194;11.546;2022-08-06T01:43:32;6.18;;;1.73;;
29238;SDS011;16267;48.194;11.546;2022-08-06T01:46:02;4.75;;;2.22;;
29238;SDS011;16267;48.194;11.546;2022-08-06T01:48:28;5.90;;;1.95;;
29238;SDS011;16267;48.194;11.546;2022-08-06T01:50:58;6.05;;;1.80;;
29238;SDS011;16267;48.194;11.546;2022-08-06T01:53:32;2.97;;;1.88;;
29238;SDS011;16267;48.194;11.546;2022-08-06T01:56:02;2.50;;;1.90;;
29238;SDS011;16267;48.194;11.546;2022-08-06T01:58:32;8.15;;;2.20;;
29238;SDS011;16267;48.194;11.546;2022-08-06T02:01:06;3.38;;;1.70;;
29238;SDS011;16267;48.194;11.546;2022-08-06T02:03:40;3.78;;;1.45;;
29238;SDS011;16267;48.194;11.546;2022-08-06T02:06:11;2.35;;;1.60;;
29238;SDS011;16267;48.194;11.546;2022-08-06T02:08:40;5.65;;;1.50;;
29238;SDS011;16267;48.194;11.546;2022-08-06T02:11:08;2.60;;;1.50;;
29238;SDS011;16267;48.194;11.546;2022-08-06T02:13:36;2.95;;;1.88;;
29238;SDS011;16267;48.194;11.546;2022-08-06T02:16:04;21.17;;;2.80;;
29238;SDS011;16267;48.194;11.546;2022-08-06T02:18:35;2.60;;;1.90;;
29238;SDS011;16267;48.194;11.546;2022-08-06T02:21:09;5.35;;;1.88;;
29238;SDS011;16267;48.194;11.546;2022-08-06T02:23:41;3.17;;;1.98;;
29238;SDS011;16267;48.194;11.546;2022-08-06T02:26:11;3.60;;;2.03;;
29238;SDS011;16267;48.194;11.546;2022-08-06T02:28:39;2.55;;;2.10;;
29238;SDS011;16267;48.194;11.546;2022-08-06T02:31:08;2.88;;;1.75;;
29238;SDS011;16267;48.194;11.546;2022-08-06T02:33:34;5.90;;;1.95;;
29238;SDS011;16267;48.194;11.546;2022-08-06T02:36:17;6.22;;;2.20;;
29238;SDS011;16267;48.194;11.546;2022-08-06T02:39:10;4.47;;;2.05;;
29238;SDS011;16267;48.194;11.546;2022-08-06T02:41:54;3.67;;;2.00;;
29238;SDS011;16267;48.194;11.546;2022-08-06T02:44:51;3.45;;;1.92;;
29238;SDS011;16267;48.194;11.546;2022-08-06T02:50:23;4.15;;;2.10;;
29238;SDS011;16267;48.194;11.546;2022-08-06T02:52:58;3.75;;;2.38;;
29238;SDS011;16267;48.194;11.546;2022-08-06T02:55:32;4.07;;;2.70;;
29238;SDS011;16267;48.194;11.546;2022-08-06T02:58:19;6.32;;;2.80;;
29238;SDS011;16267;48.194;11.546;2022-08-06T03:01:20;8.52;;;2.75;;
29238;SDS011;16267;48.194;11.546;2022-08-06T03:03:50;4.50;;;2.60;;
29238;SDS011;16267;48.194;11.546;2022-08-06T03:06:20;4.70;;;2.53;;
29238;SDS011;16267;48.194;11.546;2022-08-06T03:08:51;4.60;;;3.15;;
29238;SDS011;16267;48.194;11.546;2022-08-06T03:11:21;6.05;;;3.17;;
29238;SDS011;16267;48.194;11.546;2022-08-06T03:13:49;5.38;;;3.30;;
29238;SDS011;16267;48.194;11.546;2022-08-06T03:16:17;5.93;;;3.63;;
29238;SDS011;16267;48.194;11.546;2022-08-06T03:18:45;6.25;;;4.20;;
29238;SDS011;16267;48.194;11.546;2022-08-06T03:21:11;5.32;;;4.25;;
29238;SDS011;16267;48.194;11.546;2022-08-06T03:23:39;6.50;;;4.22;;
29238;SDS011;16267;48.194;11.546;2022-08-06T03:26:07;6.10;;;4.35;;
29238;SDS011;16267;48.194;11.546;2022-08-06T03:28:35;5.95;;;4.25;;
29238;SDS011;16267;48.194;11.546;2022-08-06T03:31:02;7.95;;;4.82;;
29238;SDS011;16267;48.194;11.546;2022-08-06T03:33:29;5.95;;;4.20;;
29238;SDS011;16267;48.194;11.546;2022-08-06T03:35:56;4.63;;;4.03;;
29238;SDS011;16267;48.194;11.546;2022-08-06T03:38:25;5.97;;;4.60;;
29238;SDS011;16267;48.194;11.546;2022-08-06T03:40:53;6.25;;;4.20;;
29238;SDS011;16267;48.194;11.546;2022-08-06T03:43:22;8.93;;;5.00;;
29238;SDS011;16267;48.194;11.546;2022-08-06T03:45:48;7.05;;;4.72;;
29238;SDS011;16267;48.194;11.546;2022-08-06T03:48:24;8.88;;;5.10;;
29238;SDS011;16267;48.194;11.546;2022-08-06T03:50:57;5.97;;;4.95;;
29238;SDS011;16267;48.194;11.546;2022-08-06T03:53:29;7.40;;;5.63;;
29238;SDS011;16267;48.194;11.546;2022-08-06T03:56:01;5.55;;;4.88;;
29238;SDS011;16267;48.194;11.546;2022-08-06T03:58:29;8.48;;;5.45;;
29238;SDS011;16267;48.194;11.546;2022-08-06T04:01:02;8.40;;;5.18;;
29238;SDS011;16267;48.194;11.546;2022-08-06T04:03:35;10.88;;;7.22;;
29238;SDS011;16267;48.194;11.546;2022-08-06T04:06:02;8.30;;;6.00;;
29238;SDS011;16267;48.194;11.546;2022-08-06T04:08:29;7.50;;;6.35;;
29238;SDS011;16267;48.194;11.546;2022-08-06T04:10:58;10.63;;;6.70;;
29238;SDS011;16267;48.194;11.546;2022-08-06T04:13:25;8.70;;;7.80;;
29238;SDS011;16267;48.194;11.546;2022-08-06T04:15:53;11.77;;;8.70;;
29238;SDS011;16267;48.194;11.546;2022-08-06T04:18:21;11.55;;;9.73;;
29238;SDS011;16267;48.194;11.546;2022-08-06T04:20:52;15.32;;;11.65;;
29238;SDS011;16267;48.194;11.546;2022-08-06T04:23:26;16.45;;;14.23;;
29238;SDS011;16267;48.194;11.546;2022-08-06T04:25:53;16.10;;;13.27;;
29238;SDS011;16267;48.194;11.546;2022-08-06T04:28:24;16.25;;;13.45;;
29238;SDS011;16267;48.194;11.546;2022-08-06T04:30:51;17.25;;;14.20;;
29238;SDS011;16267;48.194;11.546;2022-08-06T04:33:19;15.80;;;13.70;;
29238;SDS011;16267;48.194;11.546;2022-08-06T04:35:48;14.35;;;11.18;;
29238;SDS011;16267;48.194;11.546;2022-08-06T04:38:15;14.90;;;10.90;;
29238;SDS011;16267;48.194;11.546;2022-08-06T04:40:45;14.45;;;11.25;;
29238;SDS011;16267;48.194;11.546;2022-08-06T04:43:12;10.80;;;9.43;;
29238;SDS011;16267;48.194;11.546;2022-08-06T04:45:39;14.00;;;9.48;;
29238;SDS011;16267;48.194;11.546;2022-08-06T04:48:08;13.20;;;9.82;;
29238;SDS011;16267;48.194;11.546;2022-08-06T04:50:36;11.38;;;8.52;;
29238;SDS011;16267;48.194;11.546;2022-08-06T04:55:38;8.85;;;7.15;;
29238;SDS011;16267;48.194;11.546;2022-08-06T04:58:05;9.05;;;6.25;;
29238;SDS011;16267;48.194;11.546;2022-08-06T05:00:34;6.75;;;6.00;;
29238;SDS011;16267;48.194;11.546;2022-08-06T05:03:03;9.75;;;6.03;;
29238;SDS011;16267;48.194;11.546;2022-08-06T05:05:39;9.07;;;5.65;;
29238;SDS011;16267;48.194;11.546;2022-08-06T05:08:15;7.40;;;5.47;;
29238;SDS011;16267;48.194;11.546;2022-08-06T05:10:47;7.18;;;5.40;;
29238;SDS011;16267;48.194;11.546;2022-08-06T05:13:21;14.75;;;6.03;;
29238;SDS011;16267;48.194;11.546;2022-08-06T05:15:53;6.40;;;5.25;;
29238;SDS011;16267;48.194;11.546;2022-08-06T05:18:28;6.28;;;5.20;;
29238;SDS011;16267;48.194;11.546;2022-08-06T05:21:19;8.75;;;5.43;;
29238;SDS011;16267;48.194;11.546;2022-08-06T05:23:52;7.85;;;5.43;;
29238;SDS011;16267;48.194;11.546;2022-08-06T05:26:21;8.73;;;5.20;;
29238;SDS011;16267;48.194;11.546;2022-08-06T05:28:48;8.40;;;6.07;;
29238;SDS011;16267;48.194;11.546;2022-08-06T05:31:14;6.97;;;4.90;;
29238;SDS011;16267;48.194;11.546;2022-08-06T05:33:41;6.53;;;4.30;;
29238;SDS011;16267;48.194;11.546;2022-08-06T05:36:08;6.75;;;4.80;;
29238;SDS011;16267;48.194;11.546;2022-08-06T05:38:37;5.80;;;4.30;;
29238;SDS011;16267;48.194;11.546;2022-08-06T05:41:06;5.68;;;3.92;;
29238;SDS011;16267;48.194;11.546;2022-08-06T05:43:35;6.10;;;4.78;;
29238;SDS011;16267;48.194;11.546;2022-08-06T05:46:04;5.13;;;3.70;;
29238;SDS011;16267;48.194;11.546;2022-08-06T05:48:55;5.55;;;3.90;;
29238;SDS011;16267;48.194;11.546;2022-08-06T05:51:46;4.68;;;3.53;;
29238;SDS011;16267;48.194;11.546;2022-08-06T05:54:48;4.28;;;3.83;;
29238;SDS011;16267;48.194;11.546;2022-08-06T05:57:59;5.70;;;4.38;;
29238;SDS011;16267;48.194;11.546;2022-08-06T06:00:26;6.95;;;3.72;;
29238;SDS011;16267;48.194;11.546;2022-08-06T06:02:58;5.10;;;3.75;;
29238;SDS011;16267;48.194;11.546;2022-08-06T06:05:28;4.93;;;4.43;;
29238;SDS011;16267;48.194;11.546;2022-08-06T06:07:55;3.80;;;3.40;;
29238;SDS011;16267;48.194;11.546;2022-08-06T06:10:22;3.97;;;3.33;;
29238;SDS011;16267;48.194;11.546;2022-08-06T06:12:49;5.10;;;3.65;;
29238;SDS011;16267;48.194;11.546;2022-08-06T06:15:16;9.02;;;4.20;;
29238;SDS011;16267;48.194;11.546;2022-08-06T06:20:47;3.88;;;2.92;;
29238;SDS011;16267;48.194;11.546;2022-08-06T06:23:40;5.05;;;3.33;;
29238;SDS011;16267;48.194;11.546;2022-08-06T06:26:20;7.78;;;3.97;;
29238;SDS011;16267;48.194;11.546;2022-08-06T06:29:30;5.70;;;3.10;;
29238;SDS011;16267;48.194;11.546;2022-08-06T06:35:26;5.70;;;3.28;;
29238;SDS011;16267;48.194;11.546;2022-08-06T06:44:39;5.53;;;3.50;;
29238;SDS011;16267;48.194;11.546;2022-08-06T06:47:20;6.05;;;3.90;;
29238;SDS011;16267;48.194;11.546;2022-08-06T06:50:06;3.63;;;3.33;;
29238;SDS011;16267;48.194;11.546;2022-08-06T06:52:47;3.53;;;3.15;;
29238;SDS011;16267;48.194;11.546;2022-08-06T07:00:36;4.95;;;3.40;;
29238;SDS011;16267;48.194;11.546;2022-08-06T07:03:05;6.78;;;3.97;;
29238;SDS011;16267;48.194;11.546;2022-08-06T07:05:32;4.40;;;3.88;;
29238;SDS011;16267;48.194;11.546;2022-08-06T07:08:01;4.15;;;3.65;;
29238;SDS011;16267;48.194;11.546;2022-08-06T07:10:29;5.13;;;4.00;;
29238;SDS011;16267;48.194;11.546;2022-08-06T07:12:57;5.82;;;4.07;;
29238;SDS011;16267;48.194;11.546;2022-08-06T07:15:25;7.25;;;4.22;;
29238;SDS011;16267;48.194;11.546;2022-08-06T07:17:51;6.13;;;4.50;;
29238;SDS011;16267;48.194;11.546;2022-08-06T07:20:27;7.78;;;4.45;;
29238;SDS011;16267;48.194;11.546;2022-08-06T07:23:01;7.07;;;4.80;;
29238;SDS011;16267;48.194;11.546;2022-08-06T07:25:32;5.47;;;4.90;;
29238;SDS011;16267;48.194;11.546;2022-08-06T07:28:02;6.97;;;4.72;;
29238;SDS011;16267;48.194;11.546;2022-08-06T07:30:30;9.35;;;5.20;;
29238;SDS011;16267;48.194;11.546;2022-08-06T07:32:59;5.20;;;4.70;;
29238;SDS011;16267;48.194;11.546;2022-08-06T07:35:27;7.97;;;5.65;;
29238;SDS011;16267;48.194;11.546;2022-08-06T07:37:56;7.20;;;5.18;;
29238;SDS011;16267;48.194;11.546;2022-08-06T07:40:32;8.00;;;5.50;;
29238;SDS011;16267;48.194;11.546;2022-08-06T07:43:25;8.52;;;5.90;;
29238;SDS011;16267;48.194;11.546;2022-08-06T07:45:58;6.90;;;5.70;;
29238;SDS011;16267;48.194;11.546;2022-08-06T07:48:30;7.68;;;6.55;;
29238;SDS011;16267;48.194;11.546;2022-08-06T07:51:18;8.30;;;6.10;;
29238;SDS011;16267;48.194;11.546;2022-08-06T07:53:48;8.48;;;6.70;;
29238;SDS011;16267;48.194;11.546;2022-08-06T07:56:15;9.88;;;7.22;;
29238;SDS011;16267;48.194;11.546;2022-08-06T07:58:41;9.82;;;7.20;;
29238;SDS011;16267;48.194;11.546;2022-08-06T08:01:09;10.73;;;7.38;;
29238;SDS011;16267;48.194;11.546;2022-08-06T08:03:36;8.73;;;7.75;;
29238;SDS011;16267;48.194;11.546;2022-08-06T08:06:21;10.52;;;8.10;;
29238;SDS011;16267;48.194;11.546;2022-08-06T08:08:49;9.32;;;8.40;;
29238;SDS011;16267;48.194;11.546;2022-08-06T08:11:26;8.15;;;7.22;;
29238;SDS011;16267;48.194;11.546;2022-08-06T08:13:54;10.40;;;9.30;;
29238;SDS011;16267;48.194;11.546;2022-08-06T08:16:23;11.75;;;9.13;;
29238;SDS011;16267;48.194;11.546;2022-08-06T08:18:51;12.93;;;9.40;;
29238;SDS011;16267;48.194;11.546;2022-08-06T08:21:17;10.45;;;9.35;;
29238;SDS011;16267;48.194;11.546;2022-08-06T08:23:45;15.63;;;10.52;;
29238;SDS011;16267;48.194;11.546;2022-08-06T08:26:12;12.43;;;10.80;;
29238;SDS011;16267;48.194;11.546;2022-08-06T08:28:38;13.20;;;10.32;;
29238;SDS011;16267;48.194;11.546;2022-08-06T08:31:04;15.13;;;11.77;;
29238;SDS011;16267;48.194;11.546;2022-08-06T08:33:31;15.57;;;11.80;;
29238;SDS011;16267;48.194;11.546;2022-08-06T08:35:58;13.52;;;12.05;;
29238;SDS011;16267;48.194;11.546;2022-08-06T08:38:25;14.35;;;11.80;;
29238;SDS011;16267;48.194;11.546;2022-08-06T08:40:53;16.67;;;12.60;;
29238;SDS011;16267;48.194;11.546;2022-08-06T08:43:25;19.67;;;13.13;;
29238;SDS011;16267;48.194;11.546;2022-08-06T08:45:58;17.90;;;12.07;;
29238;SDS011;16267;48.194;11.546;2022-08-06T08:48:27;12.57;;;11.07;;
29238;SDS011;16267;48.194;11.546;2022-08-06T08:50:56;14.95;;;11.40;;
29238;SDS011;16267;48.194;11.546;2022-08-06T08:53:37;13.05;;;11.75;;
29238;SDS011;16267;48.194;11.546;2022-08-06T08:56:14;14.52;;;12.40;;
29238;SDS011;16267;48.194;11.546;2022-08-06T08:58:41;14.40;;;11.88;;
29238;SDS011;16267;48.194;11.546;2022-08-06T09:01:07;14.20;;;12.40;;
29238;SDS011;16267;48.194;11.546;2022-08-06T09:03:38;15.05;;;11.20;;
29238;SDS011;16267;48.194;11.546;2022-08-06T09:06:05;11.60;;;10.43;;
29238;SDS011;16267;48.194;11.546;2022-08-06T09:08:32;12.93;;;11.18;;
29238;SDS011;16267;48.194;11.546;2022-08-06T09:10:58;13.10;;;11.07;;
29238;SDS011;16267;48.194;11.546;2022-08-06T09:13:25;19.10;;;11.95;;
29238;SDS011;16267;48.194;11.546;2022-08-06T09:15:52;13.00;;;11.70;;
29238;SDS011;16267;48.194;11.546;2022-08-06T09:18:22;15.55;;;12.10;;
29238;SDS011;16267;48.194;11.546;2022-08-06T09:20:50;13.65;;;12.18;;
29238;SDS011;16267;48.194;11.546;2022-08-06T09:23:16;14.10;;;11.10;;
29238;SDS011;16267;48.194;11.546;2022-08-06T09:25:52;12.63;;;11.23;;
29238;SDS011;16267;48.194;11.546;2022-08-06T09:28:38;12.45;;;11.20;;
29238;SDS011;16267;48.194;11.546;2022-08-06T09:33:36;11.13;;;9.93;;
29238;SDS011;16267;48.194;11.546;2022-08-06T09:36:06;12.15;;;9.32;;
29238;SDS011;16267;48.194;11.546;2022-08-06T09:38:56;11.15;;;10.02;;
29238;SDS011;16267;48.194;11.546;2022-08-06T09:41:24;10.68;;;9.60;;
29238;SDS011;16267;48.194;11.546;2022-08-06T09:43:55;13.27;;;9.57;;
29238;SDS011;16267;48.194;11.546;2022-08-06T09:49:09;10.13;;;9.10;;
29238;SDS011;16267;48.194;11.546;2022-08-06T09:51:36;12.10;;;9.98;;
29238;SDS011;16267;48.194;11.546;2022-08-06T09:54:03;10.38;;;8.80;;
29238;SDS011;16267;48.194;11.546;2022-08-06T09:56:32;10.25;;;8.68;;
29238;SDS011;16267;48.194;11.546;2022-08-06T09:58:59;10.07;;;8.63;;
29238;SDS011;16267;48.194;11.546;2022-08-06T10:01:36;9.75;;;8.73;;
29238;SDS011;16267;48.194;11.546;2022-08-06T10:04:25;13.90;;;8.15;;
29238;SDS011;16267;48.194;11.546;2022-08-06T10:06:53;13.73;;;9.50;;
29238;SDS011;16267;48.194;11.546;2022-08-06T10:09:26;10.23;;;8.05;;
29238;SDS011;16267;48.194;11.546;2022-08-06T10:11:53;11.82;;;8.30;;
29238;SDS011;16267;48.194;11.546;2022-08-06T10:14:24;11.70;;;8.55;;
29238;SDS011;16267;48.194;11.546;2022-08-06T10:19:43;10.25;;;7.82;;
29238;SDS011;16267;48.194;11.546;2022-08-06T10:22:34;7.95;;;7.00;;
29238;SDS011;16267;48.194;11.546;2022-08-06T10:25:00;12.40;;;7.68;;
29238;SDS011;16267;48.194;11.546;2022-08-06T10:27:29;8.73;;;7.43;;
29238;SDS011;16267;48.194;11.546;2022-08-06T10:30:02;9.48;;;6.97;;
29238;SDS011;16267;48.194;11.546;2022-08-06T10:32:37;9.23;;;8.05;;
29238;SDS011;16267;48.194;11.546;2022-08-06T10:35:15;9.52;;;7.80;;
29238;SDS011;16267;48.194;11.546;2022-08-06T10:37:44;9.18;;;7.60;;
29238;SDS011;16267;48.194;11.546;2022-08-06T10:40:39;9.43;;;7.63;;
29238;SDS011;16267;48.194;11.546;2022-08-06T10:43:09;8.18;;;7.22;;
29238;SDS011;16267;48.194;11.546;2022-08-06T10:45:36;9.25;;;7.40;;
29238;SDS011;16267;48.194;11.546;2022-08-06T10:48:03;9.32;;;8.32;;
29238;SDS011;16267;48.194;11.546;2022-08-06T10:50:30;11.25;;;8.80;;
29238;SDS011;16267;48.194;11.546;2022-08-06T10:52:57;11.40;;;8.15;;
29238;SDS011;16267;48.194;11.546;2022-08-06T10:55:25;9.90;;;7.88;;
29238;SDS011;16267;48.194;11.546;2022-08-06T10:57:54;10.20;;;8.20;;
29238;SDS011;16267;48.194;11.546;2022-08-06T11:00:21;11.10;;;8.70;;
29238;SDS011;16267;48.194;11.546;2022-08-06T11:05:55;10.25;;;8.27;;
29238;SDS011;16267;48.194;11.546;2022-08-06T11:09:05;10.68;;;8.55;;
29238;SDS011;16267;48.194;11.546;2022-08-06T11:15:07;11.35;;;8.02;;
29238;SDS011;16267;48.194;11.546;2022-08-06T11:23:05;8.65;;;7.80;;
29238;SDS011;16267;48.194;11.546;2022-08-06T11:25:52;9.70;;;7.50;;
29238;SDS011;16267;48.194;11.546;2022-08-06T11:28:56;8.10;;;7.30;;
29238;SDS011;16267;48.194;11.546;2022-08-06T11:31:34;10.57;;;8.18;;
29238;SDS011;16267;48.194;11.546;2022-08-06T11:34:08;10.68;;;8.10;;
29238;SDS011;16267;48.194;11.546;2022-08-06T11:36:49;9.82;;;8.82;;
29238;SDS011;16267;48.194;11.546;2022-08-06T11:39:21;12.15;;;9.63;;
29238;SDS011;16267;48.194;11.546;2022-08-06T11:41:59;11.57;;;10.32;;
29238;SDS011;16267;48.194;11.546;2022-08-06T11:44:28;12.45;;;10.85;;
29238;SDS011;16267;48.194;11.546;2022-08-06T11:47:07;12.00;;;10.77;;
29238;SDS011;16267;48.194;11.546;2022-08-06T11:49:39;12.77;;;10.40;;
29238;SDS011;16267;48.194;11.546;2022-08-06T11:52:08;17.38;;;11.63;;
29238;SDS011;16267;48.194;11.546;2022-08-06T11:55:20;11.80;;;10.57;;
29238;SDS011;16267;48.194;11.546;2022-08-06T11:57:32;14.73;;;10.93;;
29238;SDS011;16267;48.194;11.546;2022-08-06T12:05:31;11.63;;;10.40;;
29238;SDS011;16267;48.194;11.546;2022-08-06T12:13:55;11.25;;;9.90;;
29238;SDS011;16267;48.194;11.546;2022-08-06T12:16:40;11.75;;;9.25;;
29238;SDS011;16267;48.194;11.546;2022-08-06T12:19:10;11.15;;;8.75;;
29238;SDS011;16267;48.194;11.546;2022-08-06T12:21:39;9.45;;;8.45;;
29238;SDS011;16267;48.194;11.546;2022-08-06T12:24:07;9.75;;;8.85;;
29238;SDS011;16267;48.194;11.546;2022-08-06T12:26:33;11.02;;;8.98;;
29238;SDS011;16267;48.194;11.546;2022-08-06T12:29:00;9.55;;;8.15;;
29238;SDS011;16267;48.194;11.546;2022-08-06T12:31:30;9.35;;;8.20;;
29238;SDS011;16267;48.194;11.546;2022-08-06T12:33:59;8.40;;;7.47;;
29238;SDS011;16267;48.194;11.546;2022-08-06T12:36:26;9.02;;;7.75;;
29238;SDS011;16267;48.194;11.546;2022-08-06T12:38:55;8.82;;;7.80;;
29238;SDS011;16267;48.194;11.546;2022-08-06T12:41:22;7.40;;;6.63;;
29238;SDS011;16267;48.194;11.546;2022-08-06T12:44:01;10.82;;;8.05;;
29238;SDS011;16267;48.194;11.546;2022-08-06T12:46:27;12.02;;;8.15;;
29238;SDS011;16267;48.194;11.546;2022-08-06T12:48:53;8.85;;;7.75;;
29238;SDS011;16267;48.194;11.546;2022-08-06T12:51:19;10.82;;;7.65;;
29238;SDS011;16267;48.194;11.546;2022-08-06T12:53:50;9.63;;;8.63;;
29238;SDS011;16267;48.194;11.546;2022-08-06T12:56:22;8.60;;;7.80;;
29238;SDS011;16267;48.194;11.546;2022-08-06T12:58:49;9.93;;;8.20;;
29238;SDS011;16267;48.194;11.546;2022-08-06T13:01:18;7.78;;;6.47;;
29238;SDS011;16267;48.194;11.546;2022-08-06T13:03:48;10.68;;;7.60;;
29238;SDS011;16267;48.194;11.546;2022-08-06T13:06:18;9.82;;;7.70;;
29238;SDS011;16267;48.194;11.546;2022-08-06T13:08:48;8.40;;;7.05;;
29238;SDS011;16267;48.194;11.546;2022-08-06T13:11:16;16.30;;;12.45;;
29238;SDS011;16267;48.194;11.546;2022-08-06T13:13:46;10.82;;;7.95;;
29238;SDS011;16267;48.194;11.546;2022-08-06T13:16:17;9.77;;;7.47;;
29238;SDS011;16267;48.194;11.546;2022-08-06T13:21:33;9.20;;;7.18;;
29238;SDS011;16267;48.194;11.546;2022-08-06T13:24:01;8.38;;;6.85;;
29238;SDS011;16267;48.194;11.546;2022-08-06T13:26:29;7.97;;;6.25;;
29238;SDS011;16267;48.194;11.546;2022-08-06T13:31:57;7.72;;;6.53;;
29238;SDS011;16267;48.194;11.546;2022-08-06T13:34:27;10.38;;;6.55;;
29238;SDS011;16267;48.194;11.546;2022-08-06T13:36:56;7.63;;;6.18;;
29238;SDS011;16267;48.194;11.546;2022-08-06T13:39:29;6.75;;;5.75;;
29238;SDS011;16267;48.194;11.546;2022-08-06T13:42:04;7.32;;;5.45;;
29238;SDS011;16267;48.194;11.546;2022-08-06T13:44:38;6.65;;;5.60;;
29238;SDS011;16267;48.194;11.546;2022-08-06T13:47:09;7.57;;;5.63;;
29238;SDS011;16267;48.194;11.546;2022-08-06T13:49:38;5.97;;;5.47;;
29238;SDS011;16267;48.194;11.546;2022-08-06T13:52:05;9.23;;;6.28;;
29238;SDS011;16267;48.194;11.546;2022-08-06T13:54:31;5.65;;;4.93;;
29238;SDS011;16267;48.194;11.546;2022-08-06T13:56:57;7.88;;;5.18;;
29238;SDS011;16267;48.194;11.546;2022-08-06T13:59:24;8.30;;;5.60;;
29238;SDS011;16267;48.194;11.546;2022-08-06T14:01:53;7.03;;;5.78;;
29238;SDS011;16267;48.194;11.546;2022-08-06T14:04:22;6.35;;;5.07;;
29238;SDS011;16267;48.194;11.546;2022-08-06T14:06:49;7.15;;;5.28;;
29238;SDS011;16267;48.194;11.546;2022-08-06T14:09:17;6.80;;;4.60;;
29238;SDS011;16267;48.194;11.546;2022-08-06T14:11:47;6.40;;;4.45;;
29238;SDS011;16267;48.194;11.546;2022-08-06T14:14:19;7.22;;;4.75;;
29238;SDS011;16267;48.194;11.546;2022-08-06T14:16:48;7.60;;;5.47;;
29238;SDS011;16267;48.194;11.546;2022-08-06T14:19:14;7.53;;;4.93;;
29238;SDS011;16267;48.194;11.546;2022-08-06T14:21:40;5.75;;;4.82;;
29238;SDS011;16267;48.194;11.546;2022-08-06T14:24:05;8.05;;;5.22;;
29238;SDS011;16267;48.194;11.546;2022-08-06T14:26:31;9.10;;;5.78;;
29238;SDS011;16267;48.194;11.546;2022-08-06T14:28:57;6.28;;;5.38;;
29238;SDS011;16267;48.194;11.546;2022-08-06T14:31:24;8.50;;;5.18;;
29238;SDS011;16267;48.194;11.546;2022-08-06T14:33:49;7.22;;;5.45;;
29238;SDS011;16267;48.194;11.546;2022-08-06T14:36:15;6.32;;;5.68;;
29238;SDS011;16267;48.194;11.546;2022-08-06T14:38:41;5.88;;;5.22;;
29238;SDS011;16267;48.194;11.546;2022-08-06T14:41:09;10.32;;;5.07;;
29238;SDS011;16267;48.194;11.546;2022-08-06T14:43:54;6.18;;;5.25;;
29238;SDS011;16267;48.194;11.546;2022-08-06T14:46:39;5.88;;;5.05;;
29238;SDS011;16267;48.194;11.546;2022-08-06T14:49:05;7.18;;;5.10;;
29238;SDS011;16267;48.194;11.546;2022-08-06T14:51:30;9.40;;;4.80;;
29238;SDS011;16267;48.194;11.546;2022-08-06T14:53:56;6.88;;;5.18;;
29238;SDS011;16267;48.194;11.546;2022-08-06T14:56:22;9.68;;;4.75;;
29238;SDS011;16267;48.194;11.546;2022-08-06T14:58:49;5.57;;;5.00;;
29238;SDS011;16267;48.194;11.546;2022-08-06T15:01:14;6.93;;;5.32;;
29238;SDS011;16267;48.194;11.546;2022-08-06T15:03:40;8.38;;;5.53;;
29238;SDS011;16267;48.194;11.546;2022-08-06T15:06:06;7.03;;;5.07;;
29238;SDS011;16267;48.194;11.546;2022-08-06T15:08:33;4.60;;;4.10;;
29238;SDS011;16267;48.194;11.546;2022-08-06T15:10:59;5.13;;;4.22;;
29238;SDS011;16267;48.194;11.546;2022-08-06T15:13:25;4.60;;;4.18;;
29238;SDS011;16267;48.194;11.546;2022-08-06T15:15:50;5.88;;;4.32;;
29238;SDS011;16267;48.194;11.546;2022-08-06T15:18:16;9.55;;;4.75;;
29238;SDS011;16267;48.194;11.546;2022-08-06T15:20:42;8.38;;;4.53;;
29238;SDS011;16267;48.194;11.546;2022-08-06T15:23:09;5.55;;;4.97;;
29238;SDS011;16267;48.194;11.546;2022-08-06T15:25:35;7.28;;;4.38;;
29238;SDS011;16267;48.194;11.546;2022-08-06T15:28:01;8.73;;;4.22;;
29238;SDS011;16267;48.194;11.546;2022-08-06T15:30:27;5.30;;;3.88;;
29238;SDS011;16267;48.194;11.546;2022-08-06T15:32:53;6.85;;;4.35;;
29238;SDS011;16267;48.194;11.546;2022-08-06T15:35:19;6.20;;;4.72;;
29238;SDS011;16267;48.194;11.546;2022-08-06T15:37:45;5.57;;;4.28;;
29238;SDS011;16267;48.194;11.546;2022-08-06T15:40:11;7.35;;;5.10;;
29238;SDS011;16267;48.194;11.546;2022-08-06T15:42:37;5.97;;;4.35;;
29238;SDS011;16267;48.194;11.546;2022-08-06T15:45:03;4.38;;;3.50;;
29238;SDS011;16267;48.194;11.546;2022-08-06T15:47:29;4.55;;;4.13;;
29238;SDS011;16267;48.194;11.546;2022-08-06T15:49:55;8.55;;;4.70;;
29238;SDS011;16267;48.194;11.546;2022-08-06T15:52:21;7.50;;;4.18;;
29238;SDS011;16267;48.194;11.546;2022-08-06T15:54:47;6.97;;;4.43;;
29238;SDS011;16267;48.194;11.546;2022-08-06T15:57:13;7.78;;;4.15;;
29238;SDS011;16267;48.194;11.546;2022-08-06T15:59:40;6.38;;;4.57;;
29238;SDS011;16267;48.194;11.546;2022-08-06T16:02:06;6.50;;;4.65;;